Terminal Aerodrome Forecast
Issued by NWS

Home | Current Version | Previous Version | Text Only | Print | Product List | Glossary On
Versions: 1 2 3 4 5 6 7 8 9 10 11 12
000
FTUS45 KRIW 311100
TAFJAC
TAF
KJAC 311120Z 3112/0112 VRB04KT P6SM SCT100
     FM311500 VRB04KT P6SM SCT250
     FM311800 20007KT P6SM SCT080
     FM312100 VRB12G22KT P6SM VCTS SCT080CB BKN120
     FM010100 VRB05KT P6SM VCSH BKN080
     FM010500 36006KT P6SM BKN100
      AMD LTD TO CLD VIS AND WIND=

USA.gov is the U.S. government's official web portal to all federal, state and local government web resources and services.